Mebane, NC (27302)

10:03 AM EST on November 24, 2014 (GMT -0500)
312 Woodlawn Drive | Change Station
CLOSE
Current Station
Personal Weather Station
Location: Mebane, NC
Elevation: 661 ft
Nearby Weather Stations

Elev 661 ft 36.11 °N, 79.27 °W | Updated 6 seconds ago

Partly Cloudy
Partly Cloudy
63.6 °F
Feels Like 63.6 °F
N
5.0
Wind Variable Wind from SW
Gusts 10.0 mph

Today
High -- | Low -- °F
--% Chance of Precip.
Yesterday
High -- | Low -- °F
Precip. -- in
7:02 AM 5:04 PM
Waxing Crescent, 5% visible
Pressure 29.79 in
Visibility 10.0 miles
Clouds Few 1700 ft
Scattered Clouds 2400 ft
Mostly Cloudy 3000 ft
Dew Point 59 °F
Humidity 86%
Rainfall 0.00 in
Snow Depth Not available.
UV 1 out of 12
Pollen .30 out of 12
Air Quality Not available.
Flu Activity Not available.
METAR KBUY 241454Z AUTO 20009G15KT 10SM FEW017 SCT024 BKN030 18/13 A2980 RMK AO2 SLP086 T01830133 50013

More Conditions Fewer Conditions

Pressure 29.79 in
Visibility 10.0 miles
Clouds Few 1700 ft
Scattered Clouds 2400 ft
Mostly Cloudy 3000 ft
Dew Point 59 °F
Humidity 86%
Rainfall 0.00 in
Snow Depth Not available.
UV 1 out of 12
Pollen .30 out of 12
Air Quality Not available.
Flu Activity Not available.
METAR KBUY 241454Z AUTO 20009G15KT 10SM FEW017 SCT024 BKN030 18/13 A2980 RMK AO2 SLP086 T01830133 50013

More Conditions Fewer Conditions

10-Day Weather Forecast

Almanac

Astronomy

Nov. 24, 2014 Rise Set
Actual Time
Civil Twilight
Nautical Twilight
Astronomical Twilight
Moon
Length of Visible Light
Length of Day
Tomorrow will be .
, % of the Moon is Illuminated

Today's Extremes

State Highs State Lows

Community

WunderPhotos

Upload Photos

1,773,360 photos uploaded!

WunderBlogs® & News

Nearby

Air Quality

  Air Quality AQ Index Pollutant
Not available.

Snow Depth

Station Depth Elevation

Earthquake Activity

City Distance Mag. Time & Date
Minimum magnitude displayed is 2.5.

Coastal Water Temperatures

Place Temperature

Nearby Weather Stations